sensor_id;sensor_type;location;lat;lon;timestamp;temperature;humidity
18779;DHT22;9518;51.720;14.384;2023-05-10T00:00:42;8.20;99.90
18779;DHT22;9518;51.720;14.384;2023-05-10T00:03:09;8.10;99.90
18779;DHT22;9518;51.720;14.384;2023-05-10T00:05:36;8.10;99.90
18779;DHT22;9518;51.720;14.384;2023-05-10T00:08:04;8.20;99.90
18779;DHT22;9518;51.720;14.384;2023-05-10T00:10:32;8.20;99.90
18779;DHT22;9518;51.720;14.384;2023-05-10T00:12:59;8.20;99.90
18779;DHT22;9518;51.720;14.384;2023-05-10T00:15:26;8.10;99.90
18779;DHT22;9518;51.720;14.384;2023-05-10T00:17:56;8.00;99.90
18779;DHT22;9518;51.720;14.384;2023-05-10T00:20:23;8.00;99.90
18779;DHT22;9518;51.720;14.384;2023-05-10T00:22:50;7.90;99.90
18779;DHT22;9518;51.720;14.384;2023-05-10T00:25:17;8.00;99.90
18779;DHT22;9518;51.720;14.384;2023-05-10T00:27:46;8.00;99.90
18779;DHT22;9518;51.720;14.384;2023-05-10T00:30:13;8.00;99.90
18779;DHT22;9518;51.720;14.384;2023-05-10T00:32:40;8.00;99.90
18779;DHT22;9518;51.720;14.384;2023-05-10T00:35:08;7.90;99.90
18779;DHT22;9518;51.720;14.384;2023-05-10T00:37:35;7.80;99.90
18779;DHT22;9518;51.720;14.384;2023-05-10T00:40:03;7.80;99.90
18779;DHT22;9518;51.720;14.384;2023-05-10T00:42:30;7.80;99.90
18779;DHT22;9518;51.720;14.384;2023-05-10T00:44:58;7.80;99.90
18779;DHT22;9518;51.720;14.384;2023-05-10T00:47:26;7.80;99.90
18779;DHT22;9518;51.720;14.384;2023-05-10T00:49:53;7.80;99.90
18779;DHT22;9518;51.720;14.384;2023-05-10T00:52:21;7.80;99.90
18779;DHT22;9518;51.720;14.384;2023-05-10T00:54:50;7.70;99.90
18779;DHT22;9518;51.720;14.384;2023-05-10T00:57:18;7.80;99.90
18779;DHT22;9518;51.720;14.384;2023-05-10T00:59:46;7.70;99.90
18779;DHT22;9518;51.720;14.384;2023-05-10T01:02:14;7.60;99.90
18779;DHT22;9518;51.720;14.384;2023-05-10T01:04:43;7.60;99.90
18779;DHT22;9518;51.720;14.384;2023-05-10T01:07:10;7.50;99.90
18779;DHT22;9518;51.720;14.384;2023-05-10T01:09:37;7.50;99.90
18779;DHT22;9518;51.720;14.384;2023-05-10T01:12:05;7.50;99.90
18779;DHT22;9518;51.720;14.384;2023-05-10T01:14:33;7.50;99.90
18779;DHT22;9518;51.720;14.384;2023-05-10T01:17:01;7.50;99.90
18779;DHT22;9518;51.720;14.384;2023-05-10T01:19:31;7.50;99.90
18779;DHT22;9518;51.720;14.384;2023-05-10T01:22:16;7.50;99.90
18779;DHT22;9518;51.720;14.384;2023-05-10T01:25:11;7.50;99.90
18779;DHT22;9518;51.720;14.384;2023-05-10T01:28:19;7.50;99.90
18779;DHT22;9518;51.720;14.384;2023-05-10T01:31:13;7.50;99.90
18779;DHT22;9518;51.720;14.384;2023-05-10T01:33:52;7.40;99.90
18779;DHT22;9518;51.720;14.384;2023-05-10T01:36:26;7.40;99.90
18779;DHT22;9518;51.720;14.384;2023-05-10T01:38:57;7.40;99.90
18779;DHT22;9518;51.720;14.384;2023-05-10T01:41:32;7.30;99.90
18779;DHT22;9518;51.720;14.384;2023-05-10T01:44:04;7.30;99.90
18779;DHT22;9518;51.720;14.384;2023-05-10T01:46:35;7.20;99.90
18779;DHT22;9518;51.720;14.384;2023-05-10T01:49:08;7.20;99.90
18779;DHT22;9518;51.720;14.384;2023-05-10T01:51:40;7.30;99.90
18779;DHT22;9518;51.720;14.384;2023-05-10T01:54:10;7.20;99.90
18779;DHT22;9518;51.720;14.384;2023-05-10T01:56:39;7.20;99.90
18779;DHT22;9518;51.720;14.384;2023-05-10T01:59:12;7.10;99.90
18779;DHT22;9518;51.720;14.384;2023-05-10T02:01:41;7.10;99.90
18779;DHT22;9518;51.720;14.384;2023-05-10T02:04:11;7.10;99.90
18779;DHT22;9518;51.720;14.384;2023-05-10T02:06:42;7.20;99.90
18779;DHT22;9518;51.720;14.384;2023-05-10T02:09:10;7.10;99.90
18779;DHT22;9518;51.720;14.384;2023-05-10T02:11:39;7.30;99.90
18779;DHT22;9518;51.720;14.384;2023-05-10T02:14:09;7.30;99.90
18779;DHT22;9518;51.720;14.384;2023-05-10T02:16:40;7.30;99.90
18779;DHT22;9518;51.720;14.384;2023-05-10T02:19:08;7.20;99.90
18779;DHT22;9518;51.720;14.384;2023-05-10T02:21:39;7.10;99.90
18779;DHT22;9518;51.720;14.384;2023-05-10T02:24:08;7.10;99.90
18779;DHT22;9518;51.720;14.384;2023-05-10T02:26:36;7.10;99.90
18779;DHT22;9518;51.720;14.384;2023-05-10T02:29:05;7.10;99.90
18779;DHT22;9518;51.720;14.384;2023-05-10T02:31:35;7.10;99.90
18779;DHT22;9518;51.720;14.384;2023-05-10T02:34:04;7.10;99.90
18779;DHT22;9518;51.720;14.384;2023-05-10T02:36:33;7.10;99.90
18779;DHT22;9518;51.720;14.384;2023-05-10T02:39:02;7.00;99.90
18779;DHT22;9518;51.720;14.384;2023-05-10T02:41:31;7.00;99.90
18779;DHT22;9518;51.720;14.384;2023-05-10T02:44:01;6.90;99.90
18779;DHT22;9518;51.720;14.384;2023-05-10T02:46:29;6.90;99.90
18779;DHT22;9518;51.720;14.384;2023-05-10T02:48:57;6.90;99.90
18779;DHT22;9518;51.720;14.384;2023-05-10T02:51:26;6.90;99.90
18779;DHT22;9518;51.720;14.384;2023-05-10T02:53:56;6.80;99.90
18779;DHT22;9518;51.720;14.384;2023-05-10T02:56:34;6.70;99.90
18779;DHT22;9518;51.720;14.384;2023-05-10T02:59:02;6.70;99.90
18779;DHT22;9518;51.720;14.384;2023-05-10T03:01:29;6.70;99.90
18779;DHT22;9518;51.720;14.384;2023-05-10T03:03:58;6.60;99.90
18779;DHT22;9518;51.720;14.384;2023-05-10T03:06:26;6.50;99.90
18779;DHT22;9518;51.720;14.384;2023-05-10T03:08:54;6.50;99.90
18779;DHT22;9518;51.720;14.384;2023-05-10T03:11:46;6.50;99.90
18779;DHT22;9518;51.720;14.384;2023-05-10T03:14:37;6.40;99.90
18779;DHT22;9518;51.720;14.384;2023-05-10T03:17:11;6.40;99.90
18779;DHT22;9518;51.720;14.384;2023-05-10T03:19:47;6.40;99.90
18779;DHT22;9518;51.720;14.384;2023-05-10T03:22:23;6.50;99.90
18779;DHT22;9518;51.720;14.384;2023-05-10T03:24:53;6.60;99.90
18779;DHT22;9518;51.720;14.384;2023-05-10T03:27:26;6.60;99.90
18779;DHT22;9518;51.720;14.384;2023-05-10T03:29:55;6.50;99.90
18779;DHT22;9518;51.720;14.384;2023-05-10T03:32:22;6.50;99.90
18779;DHT22;9518;51.720;14.384;2023-05-10T03:34:50;6.50;99.90
18779;DHT22;9518;51.720;14.384;2023-05-10T03:37:17;6.60;99.90
18779;DHT22;9518;51.720;14.384;2023-05-10T03:39:44;6.60;99.90
18779;DHT22;9518;51.720;14.384;2023-05-10T03:42:11;6.60;99.90
18779;DHT22;9518;51.720;14.384;2023-05-10T03:44:40;6.70;99.90
18779;DHT22;9518;51.720;14.384;2023-05-10T03:47:08;6.70;99.90
18779;DHT22;9518;51.720;14.384;2023-05-10T03:49:36;6.80;99.90
18779;DHT22;9518;51.720;14.384;2023-05-10T03:52:03;6.80;99.90
18779;DHT22;9518;51.720;14.384;2023-05-10T03:54:30;6.90;99.90
18779;DHT22;9518;51.720;14.384;2023-05-10T03:56:59;7.00;99.90
18779;DHT22;9518;51.720;14.384;2023-05-10T03:59:28;7.10;99.90
18779;DHT22;9518;51.720;14.384;2023-05-10T04:01:57;7.20;99.90
18779;DHT22;9518;51.720;14.384;2023-05-10T04:04:24;7.30;99.90
18779;DHT22;9518;51.720;14.384;2023-05-10T04:06:51;7.30;99.90
18779;DHT22;9518;51.720;14.384;2023-05-10T04:09:18;7.50;99.90
18779;DHT22;9518;51.720;14.384;2023-05-10T04:11:45;7.50;99.90
18779;DHT22;9518;51.720;14.384;2023-05-10T04:14:12;7.60;99.90
18779;DHT22;9518;51.720;14.384;2023-05-10T04:16:39;7.70;99.90
18779;DHT22;9518;51.720;14.384;2023-05-10T04:19:08;7.80;99.90
18779;DHT22;9518;51.720;14.384;2023-05-10T04:21:36;7.90;99.90
18779;DHT22;9518;51.720;14.384;2023-05-10T04:24:04;8.00;99.90
18779;DHT22;9518;51.720;14.384;2023-05-10T04:26:31;8.10;99.90
18779;DHT22;9518;51.720;14.384;2023-05-10T04:28:58;8.20;99.90
18779;DHT22;9518;51.720;14.384;2023-05-10T04:31:25;8.40;99.90
18779;DHT22;9518;51.720;14.384;2023-05-10T04:33:53;8.50;99.90
18779;DHT22;9518;51.720;14.384;2023-05-10T04:36:21;8.60;99.90
18779;DHT22;9518;51.720;14.384;2023-05-10T04:38:48;8.70;99.90
18779;DHT22;9518;51.720;14.384;2023-05-10T04:41:15;8.80;99.90
18779;DHT22;9518;51.720;14.384;2023-05-10T04:43:43;8.90;99.90
18779;DHT22;9518;51.720;14.384;2023-05-10T04:46:10;9.00;99.90
18779;DHT22;9518;51.720;14.384;2023-05-10T04:48:37;9.20;99.90
18779;DHT22;9518;51.720;14.384;2023-05-10T04:51:04;9.30;99.90
18779;DHT22;9518;51.720;14.384;2023-05-10T04:53:33;9.40;99.90
18779;DHT22;9518;51.720;14.384;2023-05-10T04:56:00;9.50;99.90
18779;DHT22;9518;51.720;14.384;2023-05-10T04:58:27;9.60;99.90
18779;DHT22;9518;51.720;14.384;2023-05-10T05:00:54;9.80;99.90
18779;DHT22;9518;51.720;14.384;2023-05-10T05:03:21;9.90;99.90
18779;DHT22;9518;51.720;14.384;2023-05-10T05:05:48;10.00;99.90
18779;DHT22;9518;51.720;14.384;2023-05-10T05:08:15;10.20;99.90
18779;DHT22;9518;51.720;14.384;2023-05-10T05:10:44;10.40;99.90
18779;DHT22;9518;51.720;14.384;2023-05-10T05:13:12;10.50;99.90
18779;DHT22;9518;51.720;14.384;2023-05-10T05:15:39;10.60;99.90
18779;DHT22;9518;51.720;14.384;2023-05-10T05:18:06;10.80;99.90
18779;DHT22;9518;51.720;14.384;2023-05-10T05:20:33;11.00;99.90
18779;DHT22;9518;51.720;14.384;2023-05-10T05:23:00;11.20;99.30
18779;DHT22;9518;51.720;14.384;2023-05-10T05:25:27;11.40;99.00
18779;DHT22;9518;51.720;14.384;2023-05-10T05:27:55;11.60;98.80
18779;DHT22;9518;51.720;14.384;2023-05-10T05:30:22;11.80;97.40
18779;DHT22;9518;51.720;14.384;2023-05-10T05:32:49;11.90;97.40
18779;DHT22;9518;51.720;14.384;2023-05-10T05:35:16;12.10;97.00
18779;DHT22;9518;51.720;14.384;2023-05-10T05:37:43;12.30;97.00
18779;DHT22;9518;51.720;14.384;2023-05-10T05:40:12;12.50;94.90
18779;DHT22;9518;51.720;14.384;2023-05-10T05:42:39;12.70;95.60
18779;DHT22;9518;51.720;14.384;2023-05-10T05:45:09;12.90;94.70
18779;DHT22;9518;51.720;14.384;2023-05-10T05:47:38;13.00;93.50
18779;DHT22;9518;51.720;14.384;2023-05-10T05:50:06;13.10;93.20
18779;DHT22;9518;51.720;14.384;2023-05-10T05:52:33;13.40;93.10
18779;DHT22;9518;51.720;14.384;2023-05-10T05:55:01;13.50;91.10
18779;DHT22;9518;51.720;14.384;2023-05-10T05:57:29;13.70;90.50
18779;DHT22;9518;51.720;14.384;2023-05-10T05:59:56;13.80;87.70
18779;DHT22;9518;51.720;14.384;2023-05-10T06:02:26;13.80;86.70
18779;DHT22;9518;51.720;14.384;2023-05-10T06:04:53;13.90;87.20
18779;DHT22;9518;51.720;14.384;2023-05-10T06:07:20;13.90;84.70
18779;DHT22;9518;51.720;14.384;2023-05-10T06:09:47;14.00;86.10
18779;DHT22;9518;51.720;14.384;2023-05-10T06:12:14;14.20;86.40
18779;DHT22;9518;51.720;14.384;2023-05-10T06:14:41;14.40;84.40
18779;DHT22;9518;51.720;14.384;2023-05-10T06:17:08;14.60;84.60
18779;DHT22;9518;51.720;14.384;2023-05-10T06:19:36;14.80;82.40
18779;DHT22;9518;51.720;14.384;2023-05-10T06:22:03;14.90;81.30
18779;DHT22;9518;51.720;14.384;2023-05-10T06:24:30;15.10;82.00
18779;DHT22;9518;51.720;14.384;2023-05-10T06:26:57;15.30;79.80
18779;DHT22;9518;51.720;14.384;2023-05-10T06:29:26;15.30;78.40
18779;DHT22;9518;51.720;14.384;2023-05-10T06:31:52;15.50;80.90
18779;DHT22;9518;51.720;14.384;2023-05-10T06:34:19;15.80;78.30
18779;DHT22;9518;51.720;14.384;2023-05-10T06:36:48;15.90;76.20
18779;DHT22;9518;51.720;14.384;2023-05-10T06:39:15;16.10;76.40
18779;DHT22;9518;51.720;14.384;2023-05-10T06:41:42;16.30;75.50
18779;DHT22;9518;51.720;14.384;2023-05-10T06:44:09;16.30;75.50
18779;DHT22;9518;51.720;14.384;2023-05-10T06:46:36;16.60;76.20
18779;DHT22;9518;51.720;14.384;2023-05-10T06:49:03;16.80;74.10
18779;DHT22;9518;51.720;14.384;2023-05-10T06:51:30;16.90;71.90
18779;DHT22;9518;51.720;14.384;2023-05-10T06:53:59;16.80;71.90
18779;DHT22;9518;51.720;14.384;2023-05-10T06:56:26;16.90;72.90
18779;DHT22;9518;51.720;14.384;2023-05-10T06:58:53;17.10;72.30
18779;DHT22;9518;51.720;14.384;2023-05-10T07:01:21;17.30;69.80
18779;DHT22;9518;51.720;14.384;2023-05-10T07:03:48;17.10;68.30
18779;DHT22;9518;51.720;14.384;2023-05-10T07:06:15;16.90;68.30
18779;DHT22;9518;51.720;14.384;2023-05-10T07:08:42;17.00;68.30
18779;DHT22;9518;51.720;14.384;2023-05-10T07:11:10;17.10;68.70
18779;DHT22;9518;51.720;14.384;2023-05-10T07:13:37;17.20;68.00
18779;DHT22;9518;51.720;14.384;2023-05-10T07:16:07;17.30;68.80
18779;DHT22;9518;51.720;14.384;2023-05-10T07:18:33;17.50;69.80
18779;DHT22;9518;51.720;14.384;2023-05-10T07:21:01;17.70;69.40
18779;DHT22;9518;51.720;14.384;2023-05-10T07:23:28;18.00;68.00
18779;DHT22;9518;51.720;14.384;2023-05-10T07:25:55;18.10;66.00
18779;DHT22;9518;51.720;14.384;2023-05-10T07:28:24;18.10;64.30
18779;DHT22;9518;51.720;14.384;2023-05-10T07:30:51;18.10;66.20
18779;DHT22;9518;51.720;14.384;2023-05-10T07:33:18;18.30;65.10
18779;DHT22;9518;51.720;14.384;2023-05-10T07:35:45;18.40;65.10
18779;DHT22;9518;51.720;14.384;2023-05-10T07:38:12;18.60;63.90
18779;DHT22;9518;51.720;14.384;2023-05-10T07:40:39;18.70;61.30
18779;DHT22;9518;51.720;14.384;2023-05-10T07:43:06;18.80;63.70
18779;DHT22;9518;51.720;14.384;2023-05-10T07:45:34;18.70;60.80
18779;DHT22;9518;51.720;14.384;2023-05-10T07:48:02;18.90;61.50
18779;DHT22;9518;51.720;14.384;2023-05-10T07:50:29;19.00;61.40
18779;DHT22;9518;51.720;14.384;2023-05-10T07:52:56;19.20;60.90
18779;DHT22;9518;51.720;14.384;2023-05-10T07:55:23;19.20;59.60
18779;DHT22;9518;51.720;14.384;2023-05-10T07:57:50;19.20;58.40
18779;DHT22;9518;51.720;14.384;2023-05-10T08:00:18;19.40;59.20
18779;DHT22;9518;51.720;14.384;2023-05-10T08:02:47;19.50;57.20
18779;DHT22;9518;51.720;14.384;2023-05-10T08:05:14;19.50;56.00
18779;DHT22;9518;51.720;14.384;2023-05-10T08:07:41;19.70;57.90
18779;DHT22;9518;51.720;14.384;2023-05-10T08:10:09;19.90;58.00
18779;DHT22;9518;51.720;14.384;2023-05-10T08:12:37;20.10;56.70
18779;DHT22;9518;51.720;14.384;2023-05-10T08:15:06;20.00;55.80
18779;DHT22;9518;51.720;14.384;2023-05-10T08:17:33;20.10;58.10
18779;DHT22;9518;51.720;14.384;2023-05-10T08:20:01;20.50;57.60
18779;DHT22;9518;51.720;14.384;2023-05-10T08:22:28;20.80;55.20
18779;DHT22;9518;51.720;14.384;2023-05-10T08:24:55;20.70;54.90
18779;DHT22;9518;51.720;14.384;2023-05-10T08:27:22;20.70;55.00
18779;DHT22;9518;51.720;14.384;2023-05-10T08:29:49;20.40;54.20
18779;DHT22;9518;51.720;14.384;2023-05-10T08:32:16;20.40;55.20
18779;DHT22;9518;51.720;14.384;2023-05-10T08:34:45;20.40;53.70
18779;DHT22;9518;51.720;14.384;2023-05-10T08:37:13;20.50;54.70
18779;DHT22;9518;51.720;14.384;2023-05-10T08:39:40;20.70;53.90
18779;DHT22;9518;51.720;14.384;2023-05-10T08:42:08;20.50;53.10
18779;DHT22;9518;51.720;14.384;2023-05-10T08:44:36;20.70;53.60
18779;DHT22;9518;51.720;14.384;2023-05-10T08:47:06;20.90;52.40
18779;DHT22;9518;51.720;14.384;2023-05-10T08:49:33;21.10;53.10
18779;DHT22;9518;51.720;14.384;2023-05-10T08:52:03;21.30;52.20
18779;DHT22;9518;51.720;14.384;2023-05-10T08:54:33;21.20;52.50
18779;DHT22;9518;51.720;14.384;2023-05-10T08:57:01;21.30;51.10
18779;DHT22;9518;51.720;14.384;2023-05-10T08:59:28;21.30;52.10
18779;DHT22;9518;51.720;14.384;2023-05-10T09:01:57;21.40;50.50
18779;DHT22;9518;51.720;14.384;2023-05-10T09:04:24;21.40;51.70
18779;DHT22;9518;51.720;14.384;2023-05-10T09:06:52;21.60;52.20
18779;DHT22;9518;51.720;14.384;2023-05-10T09:09:19;21.50;50.20
18779;DHT22;9518;51.720;14.384;2023-05-10T09:11:48;21.60;50.30
18779;DHT22;9518;51.720;14.384;2023-05-10T09:14:15;21.70;50.60
18779;DHT22;9518;51.720;14.384;2023-05-10T09:16:43;21.80;48.70
18779;DHT22;9518;51.720;14.384;2023-05-10T09:19:10;21.60;49.30
18779;DHT22;9518;51.720;14.384;2023-05-10T09:21:37;21.70;50.50
18779;DHT22;9518;51.720;14.384;2023-05-10T09:24:05;21.90;49.30
18779;DHT22;9518;51.720;14.384;2023-05-10T09:26:33;22.00;49.00
18779;DHT22;9518;51.720;14.384;2023-05-10T09:29:03;22.10;48.70
18779;DHT22;9518;51.720;14.384;2023-05-10T09:31:51;22.10;49.50
18779;DHT22;9518;51.720;14.384;2023-05-10T09:34:27;22.20;51.70
18779;DHT22;9518;51.720;14.384;2023-05-10T09:36:55;22.60;50.60
18779;DHT22;9518;51.720;14.384;2023-05-10T09:39:31;22.70;49.60
18779;DHT22;9518;51.720;14.384;2023-05-10T09:41:58;22.60;50.40
18779;DHT22;9518;51.720;14.384;2023-05-10T09:44:27;22.60;49.50
18779;DHT22;9518;51.720;14.384;2023-05-10T09:46:54;22.90;49.20
18779;DHT22;9518;51.720;14.384;2023-05-10T09:49:22;23.00;46.80
18779;DHT22;9518;51.720;14.384;2023-05-10T09:52:00;23.00;48.90
18779;DHT22;9518;51.720;14.384;2023-05-10T09:54:28;23.30;47.70
18779;DHT22;9518;51.720;14.384;2023-05-10T09:56:55;23.30;48.50
18779;DHT22;9518;51.720;14.384;2023-05-10T09:59:25;23.50;48.80
18779;DHT22;9518;51.720;14.384;2023-05-10T10:01:56;23.60;46.10
18779;DHT22;9518;51.720;14.384;2023-05-10T10:04:23;23.90;47.50
18779;DHT22;9518;51.720;14.384;2023-05-10T10:07:01;24.00;47.10
18779;DHT22;9518;51.720;14.384;2023-05-10T10:09:29;24.00;46.40
18779;DHT22;9518;51.720;14.384;2023-05-10T10:11:56;24.00;46.50
18779;DHT22;9518;51.720;14.384;2023-05-10T10:14:23;24.50;45.50
18779;DHT22;9518;51.720;14.384;2023-05-10T10:16:51;24.70;47.00
18779;DHT22;9518;51.720;14.384;2023-05-10T10:19:20;25.00;48.70
18779;DHT22;9518;51.720;14.384;2023-05-10T10:21:47;25.20;44.60
18779;DHT22;9518;51.720;14.384;2023-05-10T10:24:14;25.20;45.20
18779;DHT22;9518;51.720;14.384;2023-05-10T10:26:42;25.30;43.40
18779;DHT22;9518;51.720;14.384;2023-05-10T10:29:21;25.40;43.70
18779;DHT22;9518;51.720;14.384;2023-05-10T10:31:55;25.70;44.60
18779;DHT22;9518;51.720;14.384;2023-05-10T10:34:28;25.70;45.00
18779;DHT22;9518;51.720;14.384;2023-05-10T10:36:56;25.70;41.50
18779;DHT22;9518;51.720;14.384;2023-05-10T10:39:27;25.90;41.40
18779;DHT22;9518;51.720;14.384;2023-05-10T10:41:55;25.70;40.60
18779;DHT22;9518;51.720;14.384;2023-05-10T10:44:24;25.60;42.30
18779;DHT22;9518;51.720;14.384;2023-05-10T10:47:21;25.70;41.60
18779;DHT22;9518;51.720;14.384;2023-05-10T10:49:53;25.30;38.20
18779;DHT22;9518;51.720;14.384;2023-05-10T10:52:31;25.50;39.70
18779;DHT22;9518;51.720;14.384;2023-05-10T10:55:01;26.00;39.70
18779;DHT22;9518;51.720;14.384;2023-05-10T10:57:31;26.30;40.10
18779;DHT22;9518;51.720;14.384;2023-05-10T11:03:04;26.90;38.30
18779;DHT22;9518;51.720;14.384;2023-05-10T11:05:39;27.00;38.80
18779;DHT22;9518;51.720;14.384;2023-05-10T11:08:14;26.70;37.80
18779;DHT22;9518;51.720;14.384;2023-05-10T11:11:02;26.80;39.00
18779;DHT22;9518;51.720;14.384;2023-05-10T11:13:31;27.30;39.30
18779;DHT22;9518;51.720;14.384;2023-05-10T11:15:59;27.80;38.60
18779;DHT22;9518;51.720;14.384;2023-05-10T11:18:37;27.30;36.60
18779;DHT22;9518;51.720;14.384;2023-05-10T11:21:08;27.40;38.00
18779;DHT22;9518;51.720;14.384;2023-05-10T11:23:48;27.30;36.50
18779;DHT22;9518;51.720;14.384;2023-05-10T11:26:16;27.40;36.30
18779;DHT22;9518;51.720;14.384;2023-05-10T11:28:44;27.30;37.30
18779;DHT22;9518;51.720;14.384;2023-05-10T11:31:13;27.40;36.40
18779;DHT22;9518;51.720;14.384;2023-05-10T11:33:43;27.80;37.10
18779;DHT22;9518;51.720;14.384;2023-05-10T11:36:17;28.00;37.70
18779;DHT22;9518;51.720;14.384;2023-05-10T11:38:45;28.00;36.70
18779;DHT22;9518;51.720;14.384;2023-05-10T11:41:12;28.40;41.10
18779;DHT22;9518;51.720;14.384;2023-05-10T11:43:40;28.80;38.00
18779;DHT22;9518;51.720;14.384;2023-05-10T11:46:09;29.00;34.80
18779;DHT22;9518;51.720;14.384;2023-05-10T11:48:37;29.20;36.40
18779;DHT22;9518;51.720;14.384;2023-05-10T11:51:05;28.50;34.00
18779;DHT22;9518;51.720;14.384;2023-05-10T11:53:34;28.20;36.10
18779;DHT22;9518;51.720;14.384;2023-05-10T11:56:05;28.30;37.00
18779;DHT22;9518;51.720;14.384;2023-05-10T11:58:33;28.90;36.90
18779;DHT22;9518;51.720;14.384;2023-05-10T12:01:00;29.00;35.30
18779;DHT22;9518;51.720;14.384;2023-05-10T12:03:28;29.10;36.90
18779;DHT22;9518;51.720;14.384;2023-05-10T12:05:56;29.80;35.30
18779;DHT22;9518;51.720;14.384;2023-05-10T12:08:25;30.00;32.60
18779;DHT22;9518;51.720;14.384;2023-05-10T12:11:04;29.50;32.70
18779;DHT22;9518;51.720;14.384;2023-05-10T12:13:31;29.00;34.80
18779;DHT22;9518;51.720;14.384;2023-05-10T12:15:58;29.00;35.50
18779;DHT22;9518;51.720;14.384;2023-05-10T12:18:26;29.90;36.00
18779;DHT22;9518;51.720;14.384;2023-05-10T12:20:53;30.50;32.30
18779;DHT22;9518;51.720;14.384;2023-05-10T12:23:21;30.20;32.10
18779;DHT22;9518;51.720;14.384;2023-05-10T12:25:48;30.30;32.50
18779;DHT22;9518;51.720;14.384;2023-05-10T12:28:19;30.30;32.30
18779;DHT22;9518;51.720;14.384;2023-05-10T12:30:46;30.30;32.20
18779;DHT22;9518;51.720;14.384;2023-05-10T12:33:14;30.50;34.80
18779;DHT22;9518;51.720;14.384;2023-05-10T12:35:46;30.50;31.80
18779;DHT22;9518;51.720;14.384;2023-05-10T12:38:27;30.70;34.20
18779;DHT22;9518;51.720;14.384;2023-05-10T12:40:56;30.50;31.40
18779;DHT22;9518;51.720;14.384;2023-05-10T12:43:25;30.60;33.10
18779;DHT22;9518;51.720;14.384;2023-05-10T12:45:52;31.00;35.10
18779;DHT22;9518;51.720;14.384;2023-05-10T12:48:22;32.10;33.10
18779;DHT22;9518;51.720;14.384;2023-05-10T12:50:49;33.00;32.40
18779;DHT22;9518;51.720;14.384;2023-05-10T12:53:16;33.40;31.10
18779;DHT22;9518;51.720;14.384;2023-05-10T12:55:43;32.30;31.20
18779;DHT22;9518;51.720;14.384;2023-05-10T12:58:10;31.50;32.20
18779;DHT22;9518;51.720;14.384;2023-05-10T13:00:41;30.90;30.60
18779;DHT22;9518;51.720;14.384;2023-05-10T13:03:09;31.50;32.90
18779;DHT22;9518;51.720;14.384;2023-05-10T13:05:36;31.60;30.90
18779;DHT22;9518;51.720;14.384;2023-05-10T13:08:03;31.70;33.80
18779;DHT22;9518;51.720;14.384;2023-05-10T13:10:31;32.60;32.00
18779;DHT22;9518;51.720;14.384;2023-05-10T13:13:01;31.70;29.70
18779;DHT22;9518;51.720;14.384;2023-05-10T13:15:28;30.90;32.70
18779;DHT22;9518;51.720;14.384;2023-05-10T13:17:57;30.90;31.20
18779;DHT22;9518;51.720;14.384;2023-05-10T13:20:24;31.70;32.00
18779;DHT22;9518;51.720;14.384;2023-05-10T13:22:51;32.60;30.90
18779;DHT22;9518;51.720;14.384;2023-05-10T13:25:19;33.80;30.20
18779;DHT22;9518;51.720;14.384;2023-05-10T13:27:46;34.10;29.90
18779;DHT22;9518;51.720;14.384;2023-05-10T13:30:13;34.10;29.50
18779;DHT22;9518;51.720;14.384;2023-05-10T13:32:40;33.00;31.00
18779;DHT22;9518;51.720;14.384;2023-05-10T13:35:09;32.70;31.40
18779;DHT22;9518;51.720;14.384;2023-05-10T13:37:36;32.00;29.60
18779;DHT22;9518;51.720;14.384;2023-05-10T13:40:04;30.80;31.10
18779;DHT22;9518;51.720;14.384;2023-05-10T13:42:31;29.90;33.10
18779;DHT22;9518;51.720;14.384;2023-05-10T13:44:59;29.80;35.70
18779;DHT22;9518;51.720;14.384;2023-05-10T13:47:26;29.90;34.00
18779;DHT22;9518;51.720;14.384;2023-05-10T13:49:53;29.80;32.80
18779;DHT22;9518;51.720;14.384;2023-05-10T13:52:26;30.60;31.00
18779;DHT22;9518;51.720;14.384;2023-05-10T13:54:53;31.80;31.80
18779;DHT22;9518;51.720;14.384;2023-05-10T13:57:21;33.40;30.70
18779;DHT22;9518;51.720;14.384;2023-05-10T13:59:49;34.00;29.20
18779;DHT22;9518;51.720;14.384;2023-05-10T14:02:17;34.30;29.20
18779;DHT22;9518;51.720;14.384;2023-05-10T14:04:44;34.70;28.70
18779;DHT22;9518;51.720;14.384;2023-05-10T14:07:11;34.10;28.60
18779;DHT22;9518;51.720;14.384;2023-05-10T14:09:39;34.00;28.40
18779;DHT22;9518;51.720;14.384;2023-05-10T14:12:06;34.20;29.20
18779;DHT22;9518;51.720;14.384;2023-05-10T14:14:33;34.40;29.40
18779;DHT22;9518;51.720;14.384;2023-05-10T14:17:03;34.50;28.90
18779;DHT22;9518;51.720;14.384;2023-05-10T14:19:30;35.10;27.60
18779;DHT22;9518;51.720;14.384;2023-05-10T14:21:58;35.80;29.20
18779;DHT22;9518;51.720;14.384;2023-05-10T14:24:25;35.50;27.60
18779;DHT22;9518;51.720;14.384;2023-05-10T14:26:53;34.10;27.90
18779;DHT22;9518;51.720;14.384;2023-05-10T14:29:20;32.30;28.60
18779;DHT22;9518;51.720;14.384;2023-05-10T14:31:47;31.70;31.50
18779;DHT22;9518;51.720;14.384;2023-05-10T14:34:14;32.60;30.20
18779;DHT22;9518;51.720;14.384;2023-05-10T14:36:41;34.10;29.80
18779;DHT22;9518;51.720;14.384;2023-05-10T14:39:08;35.40;29.50
18779;DHT22;9518;51.720;14.384;2023-05-10T14:41:38;36.20;26.60
18779;DHT22;9518;51.720;14.384;2023-05-10T14:44:07;36.50;28.10
18779;DHT22;9518;51.720;14.384;2023-05-10T14:46:35;36.90;29.30
18779;DHT22;9518;51.720;14.384;2023-05-10T14:49:03;37.10;27.40
18779;DHT22;9518;51.720;14.384;2023-05-10T14:51:30;37.10;28.20
18779;DHT22;9518;51.720;14.384;2023-05-10T14:53:57;37.20;27.80
18779;DHT22;9518;51.720;14.384;2023-05-10T14:56:25;37.70;26.60
18779;DHT22;9518;51.720;14.384;2023-05-10T14:58:53;37.70;26.80
18779;DHT22;9518;51.720;14.384;2023-05-10T15:01:22;37.00;26.10
18779;DHT22;9518;51.720;14.384;2023-05-10T15:03:49;35.40;27.40
18779;DHT22;9518;51.720;14.384;2023-05-10T15:06:16;35.80;27.50
18779;DHT22;9518;51.720;14.384;2023-05-10T15:08:43;36.60;27.80
18779;DHT22;9518;51.720;14.384;2023-05-10T15:11:10;37.60;27.70
18779;DHT22;9518;51.720;14.384;2023-05-10T15:13:38;38.20;26.90
18779;DHT22;9518;51.720;14.384;2023-05-10T15:16:05;38.30;25.30
18779;DHT22;9518;51.720;14.384;2023-05-10T15:18:34;37.20;25.70
18779;DHT22;9518;51.720;14.384;2023-05-10T15:21:00;36.00;25.70
18779;DHT22;9518;51.720;14.384;2023-05-10T15:23:28;35.50;26.90
18779;DHT22;9518;51.720;14.384;2023-05-10T15:25:55;35.80;26.90
18779;DHT22;9518;51.720;14.384;2023-05-10T15:28:22;35.70;26.10
18779;DHT22;9518;51.720;14.384;2023-05-10T15:30:54;36.80;26.10
18779;DHT22;9518;51.720;14.384;2023-05-10T15:33:21;37.30;25.30
18779;DHT22;9518;51.720;14.384;2023-05-10T15:35:50;37.30;24.70
18779;DHT22;9518;51.720;14.384;2023-05-10T15:38:19;37.10;25.10
18779;DHT22;9518;51.720;14.384;2023-05-10T15:40:46;36.30;26.00
18779;DHT22;9518;51.720;14.384;2023-05-10T15:43:14;35.40;25.80
18779;DHT22;9518;51.720;14.384;2023-05-10T15:45:41;34.50;25.90
18779;DHT22;9518;51.720;14.384;2023-05-10T15:48:08;34.10;26.60